Time;durP1;ratioP1;P1;durP2;ratioP2;P2;SDS_P1;SDS_P2;PMS_P1;PMS_P2;Temp;Humidity;BMP_temperature;BMP_pressure;BME280_temperature;BME280_humidity;BME280_pressure;Samples;Min_cycle;Max_cycle;Signal;HPM_P1;HPM_P2
2023/01/22 00:00:41;;;;;;;12.00;8.43;;;;;;;11.61;68.95;94440.41;5069823;28;20276;-46
2023/01/22 00:03:08;;;;;;;12.60;8.80;;;;;;;11.63;69.01;94448.75;5070034;28;20194;-47
2023/01/22 00:05:36;;;;;;;11.97;9.03;;;;;;;11.62;68.91;94446.34;5070332;28;20186;-47
2023/01/22 00:08:03;;;;;;;14.30;8.83;;;;;;;11.66;69.17;94445.09;5069716;28;20201;-47
2023/01/22 00:10:31;;;;;;;16.10;8.17;;;;;;;11.67;69.17;94452.63;5070310;28;20190;-47
2023/01/22 00:12:58;;;;;;;11.53;8.27;;;;;;;11.66;69.38;94455.34;5069817;28;20275;-48
2023/01/22 00:15:24;;;;;;;11.20;8.90;;;;;;;11.69;69.05;94443.00;5069957;28;20198;-47
2023/01/22 00:17:52;;;;;;;13.07;8.83;;;;;;;11.70;69.14;94446.38;5069699;28;20744;-47
2023/01/22 00:20:19;;;;;;;12.53;9.00;;;;;;;11.72;69.22;94445.28;5069885;28;20281;-47
2023/01/22 00:22:46;;;;;;;14.40;9.20;;;;;;;11.72;69.15;94414.53;5069756;28;20205;-47
2023/01/22 00:25:13;;;;;;;10.50;7.93;;;;;;;11.73;69.15;94425.59;5069785;28;20681;-47
2023/01/22 00:27:42;;;;;;;11.10;7.77;;;;;;;11.72;69.27;94427.34;5069473;28;20772;-47
2023/01/22 00:30:10;;;;;;;12.73;9.27;;;;;;;11.73;69.30;94441.75;5069510;28;20293;-46
2023/01/22 00:32:37;;;;;;;11.27;8.27;;;;;;;11.71;69.57;94443.69;5069294;28;20320;-46
2023/01/22 00:35:04;;;;;;;12.47;8.17;;;;;;;11.75;69.41;94450.09;5069390;28;20194;-48
2023/01/22 00:37:31;;;;;;;13.30;8.33;;;;;;;11.76;69.56;94453.47;5068928;28;20240;-47
2023/01/22 00:39:58;;;;;;;14.53;8.13;;;;;;;11.76;69.56;94456.03;5069110;28;20195;-47
2023/01/22 00:42:25;;;;;;;12.17;8.27;;;;;;;11.76;69.36;94456.03;5069134;28;20277;-46
2023/01/22 00:44:53;;;;;;;13.17;8.73;;;;;;;11.76;69.57;94446.59;5068725;28;20656;-47
2023/01/22 00:47:20;;;;;;;9.50;7.83;;;;;;;11.75;69.66;94454.44;5069202;28;20187;-47
2023/01/22 00:49:47;;;;;;;13.20;7.90;;;;;;;11.77;69.64;94444.81;5068671;28;20190;-46
2023/01/22 00:52:14;;;;;;;9.67;8.07;;;;;;;11.77;69.72;94447.38;5069107;28;20236;-46
2023/01/22 00:54:40;;;;;;;9.97;8.00;;;;;;;11.76;69.99;94458.59;5069196;28;20675;-48
2023/01/22 00:57:07;;;;;;;11.30;8.40;;;;;;;11.75;69.89;94452.69;5068964;28;20205;-47
2023/01/22 00:59:34;;;;;;;10.53;7.77;;;;;;;11.75;70.02;94465.47;5069181;28;20182;-47
2023/01/22 01:02:02;;;;;;;11.17;8.10;;;;;;;11.75;70.24;94457.00;5068899;28;20746;-47
2023/01/22 01:04:29;;;;;;;10.23;7.63;;;;;;;11.73;70.24;94458.88;5068963;28;20201;-46
2023/01/22 01:06:57;;;;;;;10.27;8.23;;;;;;;11.73;70.23;94471.69;5068915;28;20613;-47
2023/01/22 01:09:23;;;;;;;11.87;7.83;;;;;;;11.75;70.10;94473.16;5068667;28;20675;-46
2023/01/22 01:11:50;;;;;;;10.87;8.03;;;;;;;11.78;70.14;94477.97;5068706;28;20202;-47
2023/01/22 01:14:17;;;;;;;10.17;7.93;;;;;;;11.79;70.22;94486.47;5068967;28;20640;-49
2023/01/22 01:16:44;;;;;;;9.63;7.53;;;;;;;11.80;70.33;94490.66;5069081;28;20228;-47
2023/01/22 01:19:12;;;;;;;9.97;8.00;;;;;;;11.80;70.37;94485.53;5068706;28;20194;-47
2023/01/22 01:21:39;;;;;;;10.57;7.50;;;;;;;11.80;70.60;94480.41;5069299;28;20201;-45
2023/01/22 01:24:06;;;;;;;11.63;7.80;;;;;;;11.80;70.45;94498.34;5068422;28;20567;-47
2023/01/22 01:26:34;;;;;;;11.37;8.27;;;;;;;11.81;70.30;94507.63;5068774;28;20593;-48
2023/01/22 01:29:01;;;;;;;11.77;7.87;;;;;;;11.81;70.63;94500.72;5069417;28;20202;-47
2023/01/22 01:31:27;;;;;;;9.63;7.67;;;;;;;11.78;70.29;94503.59;5068706;28;20183;-48
2023/01/22 01:33:55;;;;;;;11.20;8.60;;;;;;;11.84;70.69;94509.13;5069103;28;20236;-45
2023/01/22 01:36:24;;;;;;;10.90;7.47;;;;;;;11.85;70.53;94508.16;5068656;28;20194;-46
2023/01/22 01:38:53;;;;;;;9.23;7.80;;;;;;;11.78;70.35;94503.59;5072474;28;20197;-47
2023/01/22 01:41:21;;;;;;;12.87;8.60;;;;;;;11.85;70.57;94524.34;5072727;28;20294;-46
2023/01/22 01:44:07;;;;;;;11.07;7.70;;;;;;;11.86;70.53;94520.00;5072995;28;20186;-46
2023/01/22 01:46:39;;;;;;;11.43;7.67;;;;;;;11.83;70.60;94507.50;5072463;28;20656;-46
2023/01/22 01:49:06;;;;;;;11.63;8.13;;;;;;;11.85;70.72;94513.28;5073053;28;20182;-45
2023/01/22 01:51:36;;;;;;;8.20;7.27;;;;;;;11.85;70.69;94513.28;5072312;28;20202;-46
2023/01/22 01:54:05;;;;;;;9.83;7.20;;;;;;;11.76;70.65;94507.28;5072494;28;20225;-45
2023/01/22 01:56:36;;;;;;;8.20;7.37;;;;;;;11.85;70.93;94521.78;5072191;28;20189;-46
2023/01/22 01:59:07;;;;;;;9.83;7.00;;;;;;;11.84;70.98;94520.16;5072537;28;20652;-45
2023/01/22 02:01:34;;;;;;;11.67;7.40;;;;;;;11.83;70.98;94517.75;5073461;28;20361;-48
2023/01/22 02:04:01;;;;;;;8.63;6.80;;;;;;;11.59;70.85;94464.56;5073580;28;20198;-47
2023/01/22 02:06:28;;;;;;;9.30;6.93;;;;;;;11.79;70.98;94507.78;5072223;28;20251;-47
2023/01/22 02:08:59;;;;;;;10.87;6.67;;;;;;;11.77;70.99;94511.44;5072649;28;20206;-46
2023/01/22 02:11:28;;;;;;;7.83;6.70;;;;;;;11.73;71.10;94508.34;5071815;28;20178;-47
2023/01/22 02:14:00;;;;;;;8.53;6.90;;;;;;;11.71;71.31;94505.16;5072359;28;20275;-48
2023/01/22 02:16:27;;;;;;;8.57;6.57;;;;;;;11.68;71.43;94518.25;5071949;28;20672;-47
2023/01/22 02:18:53;;;;;;;10.43;6.50;;;;;;;11.68;71.46;94525.13;5072226;28;20193;-47
2023/01/22 02:21:34;;;;;;;9.90;6.97;;;;;;;11.67;71.47;94524.34;5071560;28;20179;-49
2023/01/22 02:24:01;;;;;;;9.50;6.47;;;;;;;11.67;71.47;94518.41;5071863;28;20256;-48
2023/01/22 02:26:28;;;;;;;7.60;6.17;;;;;;;11.68;71.28;94523.38;5072097;28;20251;-46
2023/01/22 02:28:55;;;;;;;7.30;5.83;;;;;;;11.70;71.19;94520.66;5068428;28;20293;-46
2023/01/22 02:31:22;;;;;;;7.83;6.50;;;;;;;11.72;71.19;94513.66;5049268;28;20190;-45
2023/01/22 02:33:49;;;;;;;8.37;6.60;;;;;;;11.74;71.25;94514.28;5065673;28;20696;-47
2023/01/22 02:36:16;;;;;;;8.87;6.17;;;;;;;11.75;71.35;94506.47;5069484;28;20186;-46
2023/01/22 02:38:44;;;;;;;9.27;6.33;;;;;;;11.76;71.40;94502.94;5069235;28;20313;-45
2023/01/22 02:41:11;;;;;;;7.77;5.97;;;;;;;11.76;71.36;94504.72;5069447;28;20202;-46
2023/01/22 02:43:38;;;;;;;8.60;6.03;;;;;;;11.72;71.39;94509.31;5068999;28;20182;-46
2023/01/22 02:46:05;;;;;;;9.27;6.40;;;;;;;11.53;71.52;94491.56;5069300;28;20610;-47
2023/01/22 02:48:32;;;;;;;10.37;7.20;;;;;;;11.69;71.37;94522.41;5068017;28;20209;-49
2023/01/22 02:50:58;;;;;;;9.93;6.47;;;;;;;11.70;71.47;94523.22;5069375;28;20251;-47
2023/01/22 02:53:25;;;;;;;7.87;6.90;;;;;;;11.71;71.50;94528.22;5068050;28;20229;-47
2023/01/22 02:55:53;;;;;;;9.37;6.80;;;;;;;11.72;71.50;94534.94;5069455;28;20803;-46
2023/01/22 02:58:20;;;;;;;8.63;6.00;;;;;;;11.74;71.39;94533.06;5069477;28;20248;-47
2023/01/22 03:00:47;;;;;;;7.03;5.90;;;;;;;11.72;71.64;94518.75;5069361;28;20229;-48
2023/01/22 03:03:15;;;;;;;6.80;5.80;;;;;;;11.76;71.60;94517.53;5068854;28;20198;-46
2023/01/22 03:05:47;;;;;;;7.77;6.37;;;;;;;11.73;71.57;94507.56;5071038;28;20190;-50
2023/01/22 03:08:14;;;;;;;7.00;6.00;;;;;;;11.75;71.67;94511.59;5072634;28;20202;-48
2023/01/22 03:10:40;;;;;;;6.03;5.00;;;;;;;11.76;71.61;94504.72;5072195;28;20194;-49
2023/01/22 03:21:21;;;;;;;6.60;5.17;;;;;;;11.80;71.22;94496.56;5048551;28;20291;-48
2023/01/22 03:23:50;;;;;;;5.53;4.60;;;;;;;11.81;71.48;94510.19;5048548;28;20292;-49
2023/01/22 03:26:18;;;;;;;5.70;5.03;;;;;;;11.65;71.54;94495.50;5068372;28;21044;-47
2023/01/22 03:28:46;;;;;;;6.37;4.73;;;;;;;11.73;71.24;94518.59;5068080;28;20190;-48
2023/01/22 03:31:14;;;;;;;6.73;5.10;;;;;;;11.75;71.70;94524.41;5068266;28;20201;-48
2023/01/22 03:33:41;;;;;;;5.97;4.33;;;;;;;11.74;71.61;94532.22;5068129;28;20229;-49
2023/01/22 03:36:10;;;;;;;5.60;4.10;;;;;;;11.71;71.70;94542.78;5068701;28;20190;-46
2023/01/22 03:38:37;;;;;;;4.93;4.40;;;;;;;11.63;71.76;94525.59;5068210;28;20272;-48
2023/01/22 03:41:05;;;;;;;4.53;3.93;;;;;;;11.67;71.93;94528.66;5068026;28;20622;-48
2023/01/22 03:43:33;;;;;;;4.97;4.47;;;;;;;11.19;71.59;94460.75;5067827;28;20187;-46
2023/01/22 03:46:04;;;;;;;5.83;3.90;;;;;;;11.61;72.07;94535.16;5066800;28;20588;-47
2023/01/22 03:48:31;;;;;;;6.10;4.53;;;;;;;11.54;71.75;94537.53;5070474;28;20201;-47
2023/01/22 03:51:03;;;;;;;5.20;4.37;;;;;;;11.55;71.78;94536.56;5070673;28;20186;-47
2023/01/22 03:53:30;;;;;;;5.37;3.70;;;;;;;11.50;71.90;94531.09;5069994;28;20570;-46
2023/01/22 03:55:58;;;;;;;5.07;4.17;;;;;;;11.49;71.67;94533.81;5070433;28;20190;-47
2023/01/22 03:58:25;;;;;;;4.67;4.17;;;;;;;11.46;71.85;94537.44;5069804;28;20240;-46
2023/01/22 04:00:56;;;;;;;5.40;4.27;;;;;;;11.45;71.79;94529.91;5070017;28;20222;-49
2023/01/22 04:03:25;;;;;;;4.83;3.80;;;;;;;11.44;71.73;94538.53;5069688;28;20190;-47
2023/01/22 04:05:52;;;;;;;5.03;3.90;;;;;;;11.41;71.73;94534.53;5070623;28;20273;-47
2023/01/22 04:08:19;;;;;;;5.67;3.83;;;;;;;11.38;71.81;94539.13;5070079;28;20190;-47
2023/01/22 04:10:46;;;;;;;4.30;3.90;;;;;;;11.37;71.72;94546.00;5069872;28;20197;-48
2023/01/22 04:13:13;;;;;;;9.00;4.20;;;;;;;11.35;71.61;94540.22;5069303;28;20225;-48
2023/01/22 04:15:42;;;;;;;4.23;3.67;;;;;;;11.35;71.69;94549.66;5070141;28;20658;-45
2023/01/22 04:18:09;;;;;;;7.13;4.50;;;;;;;11.29;71.84;94540.81;5070250;28;20184;-47
2023/01/22 04:20:37;;;;;;;3.47;3.17;;;;;;;11.26;71.85;94551.31;5069907;28;20213;-47
2023/01/22 04:23:04;;;;;;;6.60;3.93;;;;;;;11.26;71.65;94556.44;5069661;28;20562;-50
2023/01/22 04:25:31;;;;;;;5.70;3.67;;;;;;;11.24;71.88;94556.59;5069648;28;20197;-47
2023/01/22 04:27:58;;;;;;;3.90;3.50;;;;;;;11.22;71.82;94558.50;5069472;28;20197;-48
2023/01/22 04:30:24;;;;;;;3.33;3.03;;;;;;;11.21;71.80;94567.13;5069248;28;20205;-47
2023/01/22 04:32:51;;;;;;;4.10;3.60;;;;;;;11.20;71.70;94573.19;5069639;28;20621;-46
2023/01/22 04:35:18;;;;;;;6.30;3.53;;;;;;;11.20;71.83;94580.06;5069488;28;20659;-49
2023/01/22 04:37:46;;;;;;;6.07;3.53;;;;;;;11.21;71.77;94584.25;5069639;28;20599;-49
2023/01/22 04:40:13;;;;;;;4.17;3.77;;;;;;;11.20;71.76;94580.88;5069481;28;20186;-49
2023/01/22 04:42:41;;;;;;;4.97;3.87;;;;;;;11.22;71.81;94580.72;5069252;28;20239;-48
2023/01/22 04:45:09;;;;;;;6.03;3.70;;;;;;;11.21;71.78;94579.13;5069307;28;20190;-48
2023/01/22 04:47:40;;;;;;;5.23;3.80;;;;;;;11.23;71.82;94587.47;5069210;28;20680;-46
2023/01/22 04:50:08;;;;;;;3.70;3.40;;;;;;;11.21;71.84;94581.69;5069567;28;20201;-49
2023/01/22 04:52:34;;;;;;;6.47;3.90;;;;;;;11.23;71.64;94587.47;5069072;28;20190;-49
2023/01/22 04:55:03;;;;;;;5.13;3.57;;;;;;;11.20;71.92;94591.13;5069297;28;20708;-47
2023/01/22 04:57:29;;;;;;;5.23;3.47;;;;;;;11.21;71.60;94599.59;5068697;28;20186;-46
2023/01/22 04:59:56;;;;;;;4.30;3.23;;;;;;;11.22;71.79;94612.25;5068853;28;20194;-46
2023/01/22 05:02:23;;;;;;;3.37;3.07;;;;;;;11.21;71.82;94608.06;5068960;28;20202;-48
2023/01/22 05:04:50;;;;;;;3.70;3.40;;;;;;;11.19;71.87;94612.56;5069221;28;20671;-47
2023/01/22 05:07:16;;;;;;;7.07;3.53;;;;;;;11.18;71.87;94613.50;5069496;28;20186;-45
2023/01/22 05:09:43;;;;;;;6.60;3.63;;;;;;;11.18;71.83;94623.75;5069254;28;20194;-45
2023/01/22 05:12:11;;;;;;;4.23;3.17;;;;;;;11.17;72.06;94626.44;5068105;28;20687;-47
2023/01/22 05:14:38;;;;;;;3.37;2.87;;;;;;;11.13;71.82;94615.66;5068812;28;20214;-45
2023/01/22 05:17:05;;;;;;;3.27;2.97;;;;;;;11.15;71.98;94638.56;5069228;28;20193;-47
2023/01/22 05:19:32;;;;;;;5.47;3.33;;;;;;;11.14;72.00;94644.63;5068856;28;20198;-47
2023/01/22 05:21:58;;;;;;;4.27;3.60;;;;;;;11.14;72.00;94644.63;5068984;28;20182;-48
2023/01/22 05:24:25;;;;;;;3.80;3.40;;;;;;;11.13;72.01;94654.06;5068872;28;20193;-47
2023/01/22 05:26:52;;;;;;;3.43;3.10;;;;;;;11.07;71.92;94652.06;5068521;28;20263;-47
2023/01/22 05:29:24;;;;;;;3.93;3.20;;;;;;;11.11;71.87;94658.53;5068786;28;20205;-48
2023/01/22 05:31:51;;;;;;;4.70;3.40;;;;;;;11.10;72.26;94664.59;5068827;28;20199;-48
2023/01/22 05:34:18;;;;;;;4.20;3.50;;;;;;;11.10;72.06;94669.72;5068982;28;20217;-46
2023/01/22 05:36:44;;;;;;;5.43;3.40;;;;;;;11.09;72.17;94678.31;5068647;28;20194;-47
2023/01/22 05:39:11;;;;;;;5.00;2.97;;;;;;;11.09;72.15;94683.44;5068303;28;20640;-47
2023/01/22 05:41:38;;;;;;;4.50;3.17;;;;;;;11.09;72.22;94688.56;5068151;28;20199;-48
2023/01/22 05:44:05;;;;;;;3.43;3.13;;;;;;;10.94;71.88;94674.63;5068665;28;20198;-46
2023/01/22 05:46:33;;;;;;;4.03;3.63;;;;;;;11.09;71.88;94691.09;5068723;28;20195;-47
2023/01/22 05:49:00;;;;;;;4.00;3.20;;;;;;;11.05;71.98;94688.06;5068609;28;20202;-47
2023/01/22 05:51:27;;;;;;;3.53;3.20;;;;;;;11.12;71.79;94702.84;5068780;28;20182;-47
2023/01/22 05:53:54;;;;;;;3.87;3.30;;;;;;;11.10;71.94;94704.75;5068619;28;20256;-46
2023/01/22 05:56:20;;;;;;;3.90;3.40;;;;;;;11.13;71.85;94712.13;5068169;28;20697;-46
2023/01/22 05:58:47;;;;;;;3.93;3.50;;;;;;;11.14;71.68;94706.88;5068651;28;20240;-47
2023/01/22 06:01:14;;;;;;;3.90;3.40;;;;;;;11.15;71.81;94702.56;5068509;28;20688;-47
2023/01/22 06:03:43;;;;;;;4.27;3.87;;;;;;;11.17;71.77;94716.00;5068586;28;20644;-47
2023/01/22 06:06:12;;;;;;;4.43;3.73;;;;;;;10.85;71.74;94673.72;5068490;28;20225;-46
2023/01/22 06:08:39;;;;;;;4.60;4.03;;;;;;;11.17;71.63;94727.03;5068713;28;20190;-48
2023/01/22 06:11:10;;;;;;;5.33;3.80;;;;;;;11.20;71.78;94728.53;5067509;28;20198;-46
2023/01/22 06:13:37;;;;;;;4.80;4.30;;;;;;;11.22;71.57;94731.75;5068424;28;20564;-45
2023/01/22 06:16:04;;;;;;;5.57;3.70;;;;;;;11.28;71.57;94739.69;5067794;28;20289;-45
2023/01/22 06:18:31;;;;;;;4.47;4.07;;;;;;;11.32;71.58;94735.09;5068340;28;20190;-47
2023/01/22 06:21:00;;;;;;;5.63;4.07;;;;;;;11.33;71.60;94735.91;5069084;28;20182;-56
2023/01/22 06:23:28;;;;;;;6.30;5.00;;;;;;;11.38;71.50;94747.31;5071324;28;20688;-48
2023/01/22 06:25:56;;;;;;;7.57;5.40;;;;;;;11.36;71.49;94738.97;5072276;28;20282;-46
2023/01/22 06:28:23;;;;;;;5.67;4.90;;;;;;;11.40;71.42;94750.56;5071948;28;20190;-47
2023/01/22 06:30:50;;;;;;;7.33;5.17;;;;;;;11.46;71.48;94752.53;5071581;28;20179;-48
2023/01/22 06:33:17;;;;;;;6.57;5.10;;;;;;;11.49;71.43;94762.50;5071787;28;20243;-46
2023/01/22 06:35:44;;;;;;;8.43;5.37;;;;;;;11.50;71.43;94756.44;5071511;28;20293;-48
2023/01/22 06:38:12;;;;;;;10.13;6.23;;;;;;;11.53;71.52;94755.34;5071746;28;20186;-47
2023/01/22 06:40:39;;;;;;;6.40;5.40;;;;;;;11.55;71.45;94759.38;5070891;28;20259;-47
2023/01/22 06:43:07;;;;;;;7.73;5.70;;;;;;;11.45;71.58;94742.44;5071646;28;20193;-47
2023/01/22 06:45:34;;;;;;;7.80;6.13;;;;;;;11.71;71.36;94769.00;5071167;28;20660;-46
2023/01/22 06:48:01;;;;;;;9.30;6.03;;;;;;;12.01;70.68;94767.94;5071294;28;20516;-48
2023/01/22 06:50:28;;;;;;;8.63;5.50;;;;;;;12.37;69.77;94765.38;5071781;28;20186;-48
2023/01/22 06:52:54;;;;;;;6.67;5.93;;;;;;;12.92;70.27;94778.03;5071176;28;20199;-47
2023/01/22 06:55:23;;;;;;;9.93;5.63;;;;;;;13.45;70.42;94781.41;5070723;28;20214;-45
2023/01/22 06:57:49;;;;;;;10.17;6.83;;;;;;;13.96;70.46;94785.66;5071311;28;20217;-47
2023/01/22 07:00:17;;;;;;;9.70;6.23;;;;;;;14.52;70.13;94786.75;5071318;28;20237;-48
2023/01/22 07:02:44;;;;;;;8.53;6.13;;;;;;;15.08;69.63;94778.38;5071325;28;20269;-46
2023/01/22 07:05:11;;;;;;;8.70;6.40;;;;;;;15.66;69.05;94795.34;5071455;28;20653;-46
2023/01/22 07:07:37;;;;;;;8.50;6.67;;;;;;;16.24;68.20;94805.28;5070416;28;20663;-45
2023/01/22 07:10:05;;;;;;;8.50;6.37;;;;;;;16.82;67.32;94795.41;5071127;28;20217;-48
2023/01/22 07:12:33;;;;;;;9.60;6.47;;;;;;;17.38;66.42;94795.06;5070888;28;20199;-46
2023/01/22 07:15:00;;;;;;;9.10;6.40;;;;;;;17.91;65.40;94786.25;5070796;28;20695;-47
2023/01/22 07:17:27;;;;;;;9.97;6.43;;;;;;;18.47;64.41;94794.25;5070754;28;20197;-46
2023/01/22 07:19:53;;;;;;;8.10;5.93;;;;;;;18.99;63.47;94806.13;5071124;28;20260;-47
2023/01/22 07:22:20;;;;;;;10.07;6.40;;;;;;;19.50;62.38;94805.13;5070741;28;20198;-46
2023/01/22 07:24:47;;;;;;;9.23;6.33;;;;;;;19.96;61.29;94810.63;5070569;28;20256;-47
2023/01/22 07:27:14;;;;;;;7.47;5.73;;;;;;;20.42;60.53;94815.19;5070589;28;20656;-46
2023/01/22 07:29:42;;;;;;;6.63;5.87;;;;;;;20.85;59.65;94816.69;5070253;28;20653;-47
2023/01/22 07:32:08;;;;;;;7.57;6.57;;;;;;;21.25;58.65;94809.75;5070462;28;20191;-46
2023/01/22 07:34:36;;;;;;;6.80;6.03;;;;;;;21.57;57.77;94808.13;5069517;28;20225;-47
2023/01/22 07:37:03;;;;;;;9.82;6.75;;;;;;;21.98;56.83;94818.25;5070762;28;20312;-48
2023/01/22 07:39:29;;;;;;;9.13;6.38;;;;;;;22.35;56.26;94812.53;5069890;28;20186;-48
2023/01/22 07:41:59;;;;;;;8.40;6.22;;;;;;;22.69;55.62;94814.75;5070408;28;20190;-47
2023/01/22 07:44:26;;;;;;;8.30;6.20;;;;;;;23.06;55.02;94812.34;5070020;28;20203;-48
2023/01/22 07:46:54;;;;;;;7.00;5.25;;;;;;;23.39;53.94;94813.88;5070679;28;20186;-48
2023/01/22 07:49:21;;;;;;;8.20;5.93;;;;;;;23.71;53.39;94815.44;5067593;28;20183;-46
2023/01/22 07:51:48;;;;;;;7.50;5.63;;;;;;;23.99;52.80;94817.53;5069963;28;20183;-47
2023/01/22 07:54:15;;;;;;;6.20;5.53;;;;;;;24.04;53.05;94819.50;5070088;28;20233;-49
2023/01/22 07:56:41;;;;;;;8.38;6.00;;;;;;;23.87;53.19;94810.66;5069912;28;20202;-47
2023/01/22 07:59:08;;;;;;;6.78;6.07;;;;;;;23.67;53.34;94813.47;5070164;28;20271;-47
2023/01/22 08:01:35;;;;;;;8.02;6.32;;;;;;;23.48;53.75;94813.41;5069569;28;20331;-47
2023/01/22 08:04:03;;;;;;;7.43;6.05;;;;;;;23.22;53.63;94819.63;5070036;28;20202;-47
2023/01/22 08:06:30;;;;;;;7.20;6.05;;;;;;;22.91;54.34;94817.06;5069607;28;20603;-48
2023/01/22 08:08:58;;;;;;;7.72;6.13;;;;;;;22.53;54.55;94816.03;5069990;28;20221;-48
2023/01/22 08:11:24;;;;;;;7.80;6.20;;;;;;;22.27;54.31;94824.78;5069486;28;20194;-48
2023/01/22 08:13:51;;;;;;;7.93;5.97;;;;;;;21.96;54.79;94824.66;5069875;28;20688;-47
2023/01/22 08:16:18;;;;;;;7.28;5.95;;;;;;;21.64;54.64;94828.94;5069358;28;20229;-49
2023/01/22 08:18:45;;;;;;;8.30;6.18;;;;;;;21.27;54.92;94821.53;5069720;28;20408;-47
2023/01/22 08:21:13;;;;;;;7.28;6.50;;;;;;;20.97;54.89;94828.91;5069046;28;20194;-47
2023/01/22 08:23:40;;;;;;;9.02;6.70;;;;;;;20.71;55.22;94834.88;5069268;28;20664;-48
2023/01/22 08:26:06;;;;;;;7.32;6.20;;;;;;;20.53;55.38;94832.03;5069565;28;20517;-49
2023/01/22 08:28:33;;;;;;;9.13;6.72;;;;;;;20.33;55.26;94839.72;5068980;28;20702;-47
2023/01/22 08:31:02;;;;;;;9.20;7.60;;;;;;;20.17;55.54;94832.28;5067944;28;20198;-46
2023/01/22 08:33:31;;;;;;;9.32;7.15;;;;;;;19.84;55.72;94819.13;5066812;28;20194;-49
2023/01/22 08:35:58;;;;;;;9.20;7.50;;;;;;;19.79;55.96;94840.47;5067205;28;20213;-46
2023/01/22 08:38:27;;;;;;;8.27;6.57;;;;;;;19.60;55.99;94836.72;5066793;28;20558;-48
2023/01/22 08:40:54;;;;;;;10.10;7.00;;;;;;;19.43;56.17;94833.63;5067225;28;20182;-48
2023/01/22 08:43:20;;;;;;;12.20;8.37;;;;;;;19.32;56.34;94831.53;5068372;28;20224;-48
2023/01/22 08:45:48;;;;;;;10.83;5.43;;;;;;;19.48;66.20;94822.69;5072622;28;20209;-48
2023/01/22 08:48:15;;;;;;;8.97;5.47;;;;;;;19.65;67.29;94834.41;5072610;28;20233;-50
2023/01/22 08:50:42;;;;;;;9.87;5.40;;;;;;;19.87;68.00;94840.31;5069092;28;20194;-52
2023/01/22 08:53:09;;;;;;;9.63;5.70;;;;;;;20.09;67.13;94841.03;5075075;28;20186;-48
2023/01/22 08:55:37;;;;;;;7.93;5.70;;;;;;;20.27;66.45;94845.69;5086750;28;20233;-48
2023/01/22 08:58:04;;;;;;;9.10;5.50;;;;;;;20.40;65.81;94837.16;5086990;28;20193;-47
2023/01/22 09:00:30;;;;;;;5.70;4.85;;;;;;;20.50;65.04;94842.81;5085718;28;20225;-52
2023/01/22 09:02:58;;;;;;;6.53;5.38;;;;;;;20.54;64.44;94823.22;5066539;28;20198;-46
2023/01/22 09:05:26;;;;;;;7.43;5.95;;;;;;;20.74;63.85;94834.47;5067005;28;20996;-48
2023/01/22 09:07:52;;;;;;;7.20;5.55;;;;;;;20.83;63.38;94834.31;5066124;28;20817;-49
2023/01/22 09:10:19;;;;;;;7.68;6.00;;;;;;;20.93;62.76;94842.50;5067193;28;20178;-48
2023/01/22 09:12:47;;;;;;;6.95;5.75;;;;;;;20.99;62.34;94839.94;5066681;28;20655;-48
2023/01/22 09:15:14;;;;;;;7.47;6.28;;;;;;;21.10;62.04;94835.94;5066791;28;20217;-46
2023/01/22 09:17:41;;;;;;;9.85;6.55;;;;;;;21.26;61.54;94840.75;5066415;28;20191;-47
2023/01/22 09:20:09;;;;;;;7.95;5.80;;;;;;;21.47;61.47;94839.78;5066182;28;20229;-46
2023/01/22 09:22:36;;;;;;;8.68;5.90;;;;;;;21.63;61.57;94835.97;5066100;28;20198;-47
2023/01/22 09:25:03;;;;;;;9.60;6.63;;;;;;;21.68;61.17;94835.34;5066661;28;20883;-47
2023/01/22 09:27:30;;;;;;;8.13;5.82;;;;;;;21.79;61.54;94848.53;5066402;28;20313;-47
2023/01/22 09:29:58;;;;;;;6.25;5.50;;;;;;;21.85;62.36;94835.69;5066407;28;20191;-49
2023/01/22 09:32:25;;;;;;;8.13;6.15;;;;;;;21.89;62.72;94844.69;5066080;28;20285;-48
2023/01/22 09:34:52;;;;;;;11.05;6.68;;;;;;;21.88;62.49;94838.69;5066211;28;20222;-47
2023/01/22 09:37:19;;;;;;;8.88;6.88;;;;;;;21.66;61.63;94808.72;5065926;28;20637;-48
2023/01/22 09:39:48;;;;;;;9.50;7.15;;;;;;;21.71;61.53;94837.53;5066292;28;20206;-47
2023/01/22 09:42:20;;;;;;;8.77;7.00;;;;;;;21.58;61.03;94840.16;5066413;28;20226;-48
2023/01/22 09:44:52;;;;;;;11.95;7.25;;;;;;;21.37;60.94;94838.56;5066088;28;20325;-47
2023/01/22 09:47:31;;;;;;;9.68;7.32;;;;;;;21.21;60.37;94837.94;5066154;28;20183;-47
2023/01/22 09:50:04;;;;;;;9.32;7.25;;;;;;;21.03;60.20;94829.94;5066274;28;20212;-54
2023/01/22 09:52:33;;;;;;;12.77;7.60;;;;;;;20.91;60.17;94826.31;5066124;28;20183;-47
2023/01/22 09:55:06;;;;;;;10.40;8.73;;;;;;;20.82;59.71;94832.72;5064564;28;20940;-44
2023/01/22 09:57:33;;;;;;;9.73;7.70;;;;;;;20.67;59.53;94838.06;5062288;28;20583;-46
2023/01/22 10:00:00;;;;;;;10.00;8.40;;;;;;;20.56;59.32;94834.25;5069919;28;20182;-48
2023/01/22 10:02:39;;;;;;;10.57;8.30;;;;;;;20.29;59.39;94805.56;5070344;28;20193;-46
2023/01/22 10:05:17;;;;;;;11.73;7.95;;;;;;;20.34;59.28;94822.34;5069023;28;20201;-48
2023/01/22 10:07:52;;;;;;;9.80;8.40;;;;;;;20.25;59.21;94837.28;5069730;28;20198;-49
2023/01/22 10:10:21;;;;;;;9.63;8.20;;;;;;;20.13;59.18;94833.66;5069732;28;20263;-51
2023/01/22 10:12:53;;;;;;;11.83;9.13;;;;;;;19.91;59.08;94831.16;5070951;28;20217;-50
2023/01/22 10:15:23;;;;;;;12.63;8.88;;;;;;;19.96;59.25;94833.19;5070217;28;20221;-46
2023/01/22 10:17:55;;;;;;;13.67;10.20;;;;;;;19.92;59.36;94834.56;5069859;28;20190;-49
2023/01/22 10:20:23;;;;;;;11.47;9.53;;;;;;;19.96;59.05;94833.19;5069382;28;20225;-51
2023/01/22 10:22:53;;;;;;;11.40;9.57;;;;;;;20.02;58.67;94835.78;5069529;28;20657;-49
2023/01/22 10:25:19;;;;;;;12.77;8.87;;;;;;;20.07;58.38;94829.22;5069801;28;20199;-48
2023/01/22 10:27:56;;;;;;;10.27;9.23;;;;;;;20.09;58.28;94827.25;5069367;28;20715;-49
2023/01/22 10:30:25;;;;;;;15.07;9.77;;;;;;;20.10;58.02;94828.84;5069191;28;20190;-52
2023/01/22 10:33:01;;;;;;;11.57;9.80;;;;;;;20.14;57.78;94835.25;5069148;28;20209;-51
2023/01/22 10:35:30;;;;;;;11.40;8.97;;;;;;;20.19;57.64;94833.66;5068215;28;20216;-46
2023/01/22 10:37:58;;;;;;;11.57;9.70;;;;;;;20.22;57.68;94830.69;5062109;28;20223;-48
2023/01/22 10:40:29;;;;;;;11.87;9.70;;;;;;;20.29;57.27;94831.53;5065034;28;20190;-46
2023/01/22 10:43:01;;;;;;;15.77;9.57;;;;;;;20.40;57.27;94829.38;5068754;28;20193;-47
2023/01/22 10:45:28;;;;;;;11.10;8.87;;;;;;;20.40;57.13;94818.97;5068550;28;20205;-47
2023/01/22 10:48:12;;;;;;;9.50;8.50;;;;;;;20.53;56.85;94832.03;5069544;28;20182;-48
2023/01/22 10:50:39;;;;;;;14.87;8.17;;;;;;;20.55;56.54;94827.44;5068813;28;20660;-47
2023/01/22 10:53:18;;;;;;;11.27;8.73;;;;;;;20.57;56.42;94816.84;5069220;28;20610;-48
2023/01/22 10:55:52;;;;;;;9.98;7.22;;;;;;;20.58;56.17;94824.44;5068837;28;20698;-49
2023/01/22 10:58:21;;;;;;;7.95;7.15;;;;;;;20.58;55.98;94823.66;5068770;28;20194;-46
2023/01/22 11:00:57;;;;;;;10.25;7.65;;;;;;;20.55;55.86;94817.03;5068861;28;20234;-48
2023/01/22 11:03:32;;;;;;;10.73;7.43;;;;;;;20.51;55.48;94826.25;5069113;28;20190;-49
2023/01/22 11:06:02;;;;;;;7.80;6.53;;;;;;;20.46;55.46;94820.78;5069359;28;20217;-46
2023/01/22 11:08:38;;;;;;;6.80;6.10;;;;;;;20.41;55.51;94820.56;5069088;28;20179;-49
2023/01/22 11:11:09;;;;;;;8.20;6.37;;;;;;;20.36;55.22;94825.56;5068067;28;20186;-47
2023/01/22 11:13:45;;;;;;;6.07;5.50;;;;;;;20.29;55.10;94828.09;5069221;28;20275;-47
2023/01/22 11:16:16;;;;;;;8.13;6.03;;;;;;;20.02;54.85;94798.66;5069357;28;20241;-48
2023/01/22 11:18:50;;;;;;;6.10;5.50;;;;;;;20.12;54.80;94825.06;5068585;28;20194;-47
2023/01/22 11:21:20;;;;;;;5.97;5.30;;;;;;;20.05;54.84;94819.03;5068931;28;20672;-49
2023/01/22 11:23:52;;;;;;;6.90;5.35;;;;;;;19.99;55.02;94822.38;5068394;28;20202;-49
2023/01/22 11:26:39;;;;;;;5.43;4.80;;;;;;;19.93;54.78;94820.56;5069138;28;20187;-49
2023/01/22 11:29:17;;;;;;;8.15;5.38;;;;;;;19.86;54.67;94819.72;5058331;28;20268;-48
2023/01/22 11:31:59;;;;;;;4.77;4.27;;;;;;;19.75;54.67;94808.91;5068772;28;20182;-51
2023/01/22 11:34:52;;;;;;;6.90;4.40;;;;;;;19.68;54.72;94815.84;5068710;28;21010;-48
2023/01/22 11:37:23;;;;;;;7.13;4.33;;;;;;;19.61;54.68;94820.19;5067259;28;20225;-47
2023/01/22 11:40:13;;;;;;;5.60;4.93;;;;;;;19.52;54.67;94819.53;5070927;28;20194;-48
2023/01/22 11:42:53;;;;;;;6.00;4.67;;;;;;;19.46;54.81;94828.03;5070386;28;20202;-47
2023/01/22 11:45:36;;;;;;;5.27;4.40;;;;;;;19.39;54.86;94818.63;5070784;28;20182;-47